ilmateenistus.ee keskkonnaagentuur.ee
EETN Tallinna lennuväli
FTEO31 EETN 250500
TAF EETN 250530Z 2506/2606 24010KT 9999 BKN015 TEMPO 2506/2514 2000
    SNRA BKN004 BKN010 BECMG 2512/2514 33010KT PROB40 TEMPO 2514/2521
    BKN005 PROB40 TEMPO 2521/2606 VRB02KT 1200 BR BKN004=

METAR EETN 250720Z 24008KT 9999 -RA OVC007 01/01 Q1013 R08/290195 NOSIG=
Tallinna lennuväli
EEKA Kärdla lennuväli
FCEO32 EETN 250500
TAF EEKA 250500Z 2506/2512 31012KT 9999 BKN013 TEMPO 2506/2509 4000
    RA BKN004 BKN010=

METAR EEKA 250650Z 28003KT 240V310 9999 -RA FEW007 OVC043 02/02 Q1015=
Kärdla lennuväli
EEKE Kuressaare lennuväli
SPECI EEKE 250735Z AUTO 31004KT 280V350 9999NDV DZ BKN005 OVC010 02/02 Q1016=
Kuressaare lennuväli
EEPU Pärnu lennuväli
METAR EEPU 250650Z 22004KT 9999 -RA BKN014 OVC023 03/02 Q1015=
Pärnu lennuväli
EETU Tartu lennuväli
FCEO32 EETN 250700
TAF EETU 250700Z 2508/2514 22010KT 9999 BKN008 OVC025 TEMPO 2508/2511
    3000 SNRA BKN005 BKN012 BECMG 2510/2512 28012KT=

METAR EETU 250720Z 22009KT 8000 -SNRA BKN011 OVC026 01/M02 Q1015=
Tartu lennuväli
EEEI Ämari lennuväli
METAR EEEI 250650Z 26009KT 9999 -RA OVC006 02/01 Q1014 R24/190095 NOSIG=
Ämari lennuväli